»·PEaware :: SKW4065 KCPR-KSLC

SKW4065 :: KCPR-KSLC

FLIGHT INFORMATION

Flight Status: Arrived
Operator:
SkyWest Airlines
More flights by this operator :: More flights under this callsign
Pilot: Skye D. (10623)
Aircraft: CANADAIR CL-600 CRJ-200
(CRJ2)
More flights by this aircraft type
Origin: KCPR Natrona Co Intl
United States
Destination: KSLC Salt Lake City Intl
United States
More flights between these airports :: More routes between these airports
Route: ALCOS6 CKW OCS NORDK5
File this flight plan on PilotEdge
Remarks:
Altitude:
(Current/Filed)
30,000ft
Speed:
(Current/Filed)
466kts
Departed: 21-Feb-18 02:16 PM
Arrived: 21-Feb-18 03:24 PM
Distance/Time
Traveled:
278nm/1:07
Distance/Time
To Go:
Arrived

Flight Plot

Page will automatically refresh every two minutes.

Flight plan parsing failed; only flown route is shown


Map Options




Map Legend


Flown Route
Filed Route
Departure Airport
Arrival Airport
Navaid (VOR, NDB)
Fix

Horizontal Profiles

Position Reports

Time Latitude Longitude Heading Altitude Ground
Speed
21-Feb-18 14:02 42.897755 -106.464657 221 5352ft 0kts
21-Feb-18 14:03 42.897755 -106.464657 221 5352ft 0kts
21-Feb-18 14:04 42.897755 -106.464657 221 5352ft 0kts
21-Feb-18 14:05 42.897755 -106.464657 221 5352ft 0kts
21-Feb-18 14:06 42.897755 -106.464657 221 5352ft 0kts
21-Feb-18 14:07 42.897755 -106.464657 221 5352ft 0kts
21-Feb-18 14:08 42.897755 -106.464657 221 5352ft 0kts
21-Feb-18 14:09 42.897755 -106.464657 221 5352ft 0kts
21-Feb-18 14:10 42.897755 -106.464657 221 5352ft 0kts
21-Feb-18 14:11 42.897755 -106.464657 221 5352ft 0kts
21-Feb-18 14:12 42.897755 -106.464657 221 5352ft 0kts
21-Feb-18 14:13 42.897755 -106.464657 221 5352ft 0kts
21-Feb-18 14:14 42.897755 -106.464657 221 5352ft 0kts
21-Feb-18 14:15 42.897753 -106.464658 221 5352ft 0kts
21-Feb-18 14:16 42.897894 -106.465117 313 5352ft 0kts
21-Feb-18 14:17 42.898907 -106.464586 27 5352ft 15kts
21-Feb-18 14:18 42.903447 -106.459215 44 5352ft 18kts
21-Feb-18 14:19 42.906904 -106.454753 44 5352ft 20kts
21-Feb-18 14:20 42.911090 -106.449332 42 5352ft 20kts
21-Feb-18 14:21 42.912602 -106.448097 318 5352ft 0kts
21-Feb-18 14:22 42.912853 -106.449803 224 5352ft 24kts
21-Feb-18 14:23 42.887130 -106.481152 217 6667ft 166kts
21-Feb-18 14:24 42.847025 -106.522731 220 8548ft 235kts
21-Feb-18 14:25 42.790536 -106.576123 220 11583ft 252kts
21-Feb-18 14:26 42.725607 -106.640622 219 12902ft 314kts
21-Feb-18 14:27 42.654964 -106.710940 218 15346ft 320kts
21-Feb-18 14:28 42.582415 -106.782441 218 17379ft 328kts
21-Feb-18 14:29 42.508055 -106.855401 218 19236ft 333kts
21-Feb-18 14:30 42.432841 -106.929013 218 20881ft 336kts
21-Feb-18 14:31 42.356782 -107.003178 218 22296ft 340kts
21-Feb-18 14:32 42.280515 -107.077337 218 23695ft 343kts
21-Feb-18 14:33 42.203305 -107.152180 218 25143ft 340kts
21-Feb-18 14:34 42.127139 -107.225805 218 26536ft 334kts
21-Feb-18 14:35 42.050456 -107.299702 218 27200ft 345kts
21-Feb-18 14:36 41.972582 -107.374502 218 28144ft 346kts
21-Feb-18 14:37 41.894129 -107.449635 218 28911ft 349kts
21-Feb-18 14:38 41.815179 -107.525004 217 29629ft 352kts
21-Feb-18 14:39 41.754052 -107.621810 252 30104ft 364kts
21-Feb-18 14:40 41.736836 -107.755981 254 30106ft 365kts
21-Feb-18 14:41 41.721867 -107.889284 254 30104ft 360kts
21-Feb-18 14:42 41.707110 -108.020084 254 30105ft 363kts
21-Feb-18 14:43 41.691678 -108.155523 255 30103ft 373kts
21-Feb-18 14:44 41.675716 -108.293822 255 30106ft 380kts
21-Feb-18 14:45 41.659406 -108.434193 255 30108ft 386kts
21-Feb-18 14:46 41.642601 -108.576977 255 30106ft 390kts
21-Feb-18 14:47 41.626157 -108.717460 255 30115ft 392kts
21-Feb-18 14:48 41.608867 -108.861918 256 30113ft 396kts
21-Feb-18 14:49 41.591530 -109.006236 259 30107ft 401kts
21-Feb-18 14:50 41.601569 -109.157137 269 30110ft 411kts
21-Feb-18 14:51 41.613406 -109.308926 270 30106ft 412kts
21-Feb-18 14:52 41.625260 -109.461600 270 30107ft 415kts
21-Feb-18 14:53 41.636908 -109.615120 270 30106ft 416kts
21-Feb-18 14:54 41.648661 -109.768191 270 30114ft 417kts
21-Feb-18 14:55 41.660009 -109.922938 271 30121ft 419kts
21-Feb-18 14:56 41.671108 -110.077488 271 30120ft 421kts
21-Feb-18 14:57 41.681995 -110.232107 271 30118ft 421kts
21-Feb-18 14:58 41.692510 -110.384500 271 30117ft 423kts
21-Feb-18 14:59 41.703271 -110.537963 271 30116ft 424kts
21-Feb-18 15:00 41.714366 -110.692593 271 29255ft 417kts
21-Feb-18 15:01 41.725151 -110.845885 271 28091ft 412kts
21-Feb-18 15:02 41.735412 -110.996847 271 27119ft 405kts
21-Feb-18 15:03 41.744881 -111.139120 271 26255ft 399kts
21-Feb-18 15:04 41.753943 -111.278320 272 25514ft 392kts
21-Feb-18 15:05 41.763112 -111.420999 272 23602ft 384kts
21-Feb-18 15:06 41.771656 -111.556925 272 22544ft 376kts
21-Feb-18 15:07 41.780271 -111.693523 272 21503ft 370kts
21-Feb-18 15:08 41.788584 -111.828020 272 20552ft 366kts
21-Feb-18 15:09 41.784208 -111.960394 243 19639ft 357kts
21-Feb-18 15:10 41.708644 -112.019665 193 19286ft 369kts
21-Feb-18 15:11 41.609878 -112.038251 190 19293ft 373kts
21-Feb-18 15:12 41.511649 -112.054037 190 18876ft 367kts
21-Feb-18 15:13 41.412814 -112.074368 192 17285ft 361kts
21-Feb-18 15:14 41.316473 -112.095192 192 15803ft 353kts
21-Feb-18 15:15 41.221950 -112.115600 191 14969ft 336kts
21-Feb-18 15:16 41.132775 -112.134809 191 13385ft 322kts
21-Feb-18 15:17 41.045806 -112.140149 174 11993ft 322kts
21-Feb-18 15:18 40.959210 -112.121960 172 10978ft 313kts
21-Feb-18 15:19 40.877332 -112.106887 176 10992ft 314kts
21-Feb-18 15:20 40.814405 -112.099331 176 10984ft 298kts
21-Feb-18 15:21 40.739072 -112.090484 177 10955ft 221kts
21-Feb-18 15:22 40.690658 -112.085832 177 9516ft 221kts
21-Feb-18 15:23 40.630695 -112.080028 177 8989ft 223kts
21-Feb-18 15:24 40.575583 -112.055667 118 8705ft 231kts
21-Feb-18 15:25 40.604040 -111.988628 32 6989ft 222kts
21-Feb-18 15:26 40.643766 -111.980185 353 6797ft 193kts
21-Feb-18 15:27 40.688585 -111.985470 353 5992ft 182kts
21-Feb-18 15:28 40.726113 -111.989820 353 5195ft 134kts
21-Feb-18 15:29 40.754605 -111.993041 354 4665ft 135kts
21-Feb-18 15:30 40.784385 -111.996579 354 4233ft 94kts
21-Feb-18 15:31 40.791527 -111.994498 119 4232ft 10kts
21-Feb-18 15:32 40.791126 -111.991641 85 4232ft 15kts
21-Feb-18 15:33 40.789319 -111.988970 173 4232ft 19kts
21-Feb-18 15:34 40.786777 -111.988090 78 4232ft 6kts
21-Feb-18 15:35 40.786935 -111.987575 59 4232ft 0kts

Navigation Log

Ident Type
Flight plan parsing failed, navigation log unavailable